Time;durP1;ratioP1;P1;durP2;ratioP2;P2;SDS_P1;SDS_P2;PMS_P1;PMS_P2;Temp;Humidity;BMP_temperature;BMP_pressure;BME280_temperature;BME280_humidity;BME280_pressure;Samples;Min_cycle;Max_cycle;Signal;HPM_P1;HPM_P2
2021/08/11 00:00:53;;;;;;;1.20;1.00;;;18.10;99.90;;;15.65;100.00;100099.63;3591581;39;20259;-81
2021/08/11 00:04:05;;;;;;;1.95;1.10;;;17.30;99.90;;;15.63;100.00;100066.63;3592736;39;20350;-81
2021/08/11 00:07:17;;;;;;;1.65;1.42;;;17.20;99.90;;;15.61;100.00;100065.16;3571498;39;20315;-84
2021/08/11 00:10:29;;;;;;;1.98;1.52;;;17.20;99.90;;;15.53;100.00;100057.19;3573094;39;20260;-82
2021/08/11 00:13:40;;;;;;;5.15;1.80;;;17.10;99.90;;;15.48;100.00;100052.38;3564623;39;20254;-82
2021/08/11 00:16:54;;;;;;;3.30;1.48;;;17.40;99.90;;;15.51;100.00;100064.63;3579053;39;20259;-84
2021/08/11 00:20:05;;;;;;;3.97;1.30;;;17.10;99.90;;;15.34;100.00;100074.84;3581541;39;20369;-82
2021/08/11 00:23:17;;;;;;;1.30;1.20;;;17.00;99.90;;;15.33;100.00;100073.22;3580878;39;20244;-83
2021/08/11 00:26:30;;;;;;;2.75;1.50;;;17.00;99.90;;;15.34;100.00;100074.84;3581492;39;20240;-82
2021/08/11 00:29:41;;;;;;;2.58;1.50;;;17.00;99.90;;;15.28;100.00;100067.56;3577195;39;20342;-83
2021/08/11 00:32:55;;;;;;;5.82;2.25;;;17.00;99.90;;;15.28;100.00;100081.03;3564428;39;20775;-84
2021/08/11 00:36:07;;;;;;;2.40;1.52;;;16.20;99.90;;;15.27;100.00;100080.19;3584267;39;20296;-82
2021/08/11 00:39:19;;;;;;;1.30;1.20;;;16.90;99.90;;;15.19;100.00;100085.72;3584161;39;20353;-82
2021/08/11 00:42:32;;;;;;;2.70;1.38;;;16.90;99.90;;;15.11;100.00;100083.13;3571535;39;20291;-84
2021/08/11 00:45:46;;;;;;;3.10;1.50;;;16.90;99.90;;;15.00;100.00;100080.97;3569947;39;20285;-83
2021/08/11 00:49:00;;;;;;;2.63;1.25;;;16.80;99.90;;;14.96;100.00;100083.19;3572013;39;20712;-81
2021/08/11 00:52:12;;;;;;;1.30;1.20;;;16.70;99.90;;;14.87;100.00;100033.16;3561246;40;20302;-81
2021/08/11 00:55:30;;;;;;;2.38;1.88;;;16.70;99.90;;;14.82;100.00;100116.44;3562687;40;20273;-83
2021/08/11 00:58:45;;;;;;;1.65;1.38;;;16.60;99.90;;;14.71;100.00;100133.09;3570914;39;20280;-81
2021/08/11 01:01:59;;;;;;;2.35;1.15;;;16.50;99.90;;;14.70;100.00;100150.25;3567334;39;20336;-84
2021/08/11 01:05:16;;;;;;;4.45;1.38;;;16.40;99.90;;;14.65;100.00;100163.44;3573710;39;20256;-83
2021/08/11 01:08:28;;;;;;;1.65;1.23;;;16.30;99.90;;;14.59;100.00;100221.56;3573728;39;20542;-82
2021/08/11 01:11:42;;;;;;;2.08;1.67;;;16.20;99.90;;;14.54;100.00;100233.91;3572339;39;20547;-83
2021/08/11 01:14:55;;;;;;;1.90;1.33;;;16.10;99.90;;;14.48;100.00;100250.78;3570714;39;20363;-82
2021/08/11 01:18:07;;;;;;;1.95;1.35;;;16.10;99.90;;;14.44;100.00;100277.28;3563611;39;20261;-82
2021/08/11 01:21:32;;;;;;;1.92;1.63;;;16.00;99.90;;;14.42;100.00;100295.47;3568649;39;20304;-82
2021/08/11 01:24:51;;;;;;;2.13;1.33;;;15.90;99.90;;;14.44;100.00;100312.25;3572562;39;20551;-81
2021/08/11 01:28:15;;;;;;;2.22;1.65;;;15.90;99.90;;;14.47;100.00;100319.13;3572465;39;20753;-81
2021/08/11 01:31:40;;;;;;;4.95;1.17;;;15.80;99.90;;;14.43;100.00;99957.94;3563466;39;20349;-84
2021/08/11 01:35:01;;;;;;;2.50;1.55;;;15.80;99.90;;;14.43;100.00;99949.88;3582114;39;20375;-82
2021/08/11 01:38:23;;;;;;;2.67;1.08;;;15.70;99.90;;;14.38;100.00;99988.09;3603457;39;20256;-83
2021/08/11 01:41:44;;;;;;;4.95;2.10;;;15.80;99.90;;;14.34;100.00;100043.31;3605890;39;20475;-82
2021/08/11 01:45:03;;;;;;;3.88;2.03;;;15.70;99.90;;;14.37;100.00;100074.41;3590794;39;20687;-81
2021/08/11 01:48:25;;;;;;;1.77;1.65;;;15.70;99.90;;;14.35;100.00;100104.19;3589209;39;20661;-83
2021/08/11 01:51:41;;;;;;;2.22;1.80;;;16.70;99.90;;;14.30;100.00;100103.94;3590128;39;20267;-82
2021/08/11 01:54:59;;;;;;;1.75;1.63;;;15.60;99.90;;;14.34;100.00;100147.47;3581846;39;20255;-81
2021/08/11 01:58:13;;;;;;;2.85;2.10;;;15.60;99.90;;;14.31;100.00;100170.19;3571430;39;20312;-82
2021/08/11 02:01:26;;;;;;;3.88;2.20;;;16.00;99.90;;;14.29;100.00;100204.53;3573265;39;20268;-83
2021/08/11 02:04:41;;;;;;;4.85;1.90;;;15.60;99.90;;;14.25;100.00;100222.06;3578553;39;20275;-82
2021/08/11 02:07:55;;;;;;;2.42;1.92;;;15.80;99.90;;;14.25;100.00;100246.28;3569825;39;20596;-83
2021/08/11 02:11:08;;;;;;;3.22;2.10;;;15.60;99.90;;;14.17;100.00;100267.06;3569968;39;20253;-83
2021/08/11 02:14:22;;;;;;;1.92;1.67;;;15.60;99.90;;;14.21;100.00;100323.03;3572036;39;20717;-82
2021/08/11 02:17:35;;;;;;;2.47;1.52;;;15.60;99.90;;;14.14;100.00;100372.34;3570507;39;20736;-84
2021/08/11 02:20:49;;;;;;;3.53;2.10;;;15.50;99.90;;;14.11;100.00;100413.06;3572618;39;20537;-83
2021/08/11 02:24:03;;;;;;;3.05;1.77;;;15.50;99.90;;;14.06;100.00;100490.81;3571383;39;20581;-83
2021/08/11 02:27:21;;;;;;;4.35;1.77;;;15.40;99.90;;;14.05;100.00;100524.09;3570321;39;20263;-81
2021/08/11 02:30:42;;;;;;;2.15;1.95;;;15.40;99.90;;;13.97;100.00;100598.44;3570208;39;20274;-82
2021/08/11 02:34:05;;;;;;;4.15;2.35;;;15.30;99.90;;;13.97;100.00;100691.78;3570696;39;20262;-82
2021/08/11 02:37:23;;;;;;;2.75;2.10;;;15.30;99.90;;;13.96;100.00;100733.16;3584721;39;20241;-82
2021/08/11 02:40:48;;;;;;;3.60;2.05;;;15.20;99.90;;;13.91;100.00;100802.75;3584845;39;20256;-83
2021/08/11 02:44:09;;;;;;;3.60;2.53;;;15.20;99.90;;;13.87;100.00;100796.00;3571634;39;20521;-83
2021/08/11 02:47:23;;;;;;;5.07;2.77;;;14.40;99.90;;;13.81;100.00;100794.00;3551070;40;20261;-83
2021/08/11 02:50:37;;;;;;;6.03;2.27;;;15.10;99.90;;;13.80;100.00;100795.84;3544682;40;20246;-81
2021/08/11 02:53:52;;;;;;;4.43;1.90;;;15.00;99.90;;;13.75;100.00;100775.81;3563221;39;20567;-83
2021/08/11 02:57:08;;;;;;;3.40;2.25;;;15.80;99.90;;;13.75;100.00;100765.06;3572126;39;20260;-83
2021/08/11 03:00:20;;;;;;;7.28;2.80;;;15.00;99.90;;;13.73;100.00;100783.22;3581843;39;20810;-82
2021/08/11 03:03:33;;;;;;;2.40;2.20;;;15.70;99.90;;;13.75;100.00;100939.88;3570999;39;20268;-82
2021/08/11 03:06:47;;;;;;;3.33;2.30;;;14.90;99.90;;;13.70;100.00;101088.31;3569557;39;20356;-82
2021/08/11 03:10:00;;;;;;;4.80;2.20;;;14.90;99.90;;;13.62;100.00;100722.53;3570298;39;20349;-83
2021/08/11 03:13:15;;;;;;;3.17;2.43;;;14.80;99.90;;;13.62;100.00;100754.81;3570332;39;20295;-82
2021/08/11 03:16:26;;;;;;;3.57;2.27;;;14.90;99.90;;;13.56;100.00;100769.78;3571024;39;20467;-83
2021/08/11 03:19:38;;;;;;;2.88;2.35;;;14.80;99.90;;;13.52;100.00;100805.19;3579959;39;20399;-83
2021/08/11 03:22:52;;;;;;;3.27;2.27;;;14.70;99.90;;;13.51;100.00;100822.34;3582127;39;20255;-83
2021/08/11 03:26:04;;;;;;;3.70;2.23;;;14.70;99.90;;;13.47;100.00;100834.44;3582292;39;20286;-83
2021/08/11 03:29:18;;;;;;;5.37;2.73;;;14.70;99.90;;;13.36;100.00;100850.84;3580751;39;20266;-83
2021/08/11 03:32:30;;;;;;;2.80;2.57;;;14.60;99.90;;;13.35;100.00;100874.22;3592824;39;20462;-82
2021/08/11 03:35:43;;;;;;;2.63;1.90;;;14.60;99.90;;;13.34;100.00;100891.34;3596302;39;20262;-82
2021/08/11 03:38:55;;;;;;;3.97;2.80;;;14.70;99.90;;;13.36;100.00;100901.91;3580442;39;20687;-83
2021/08/11 03:42:10;;;;;;;2.80;2.57;;;14.40;99.90;;;13.23;100.00;100918.47;3581100;39;20770;-84
2021/08/11 03:45:24;;;;;;;3.53;2.60;;;15.10;99.90;;;13.25;100.00;100959.47;3588900;39;20262;-81
2021/08/11 03:48:36;;;;;;;2.97;2.13;;;14.40;99.90;;;13.18;100.00;100945.00;3575951;39;20367;-82
2021/08/11 03:51:48;;;;;;;7.73;2.73;;;14.40;99.90;;;13.13;100.00;100982.22;3569608;39;20654;-82
2021/08/11 03:55:00;;;;;;;4.83;3.03;;;14.40;99.90;;;13.10;100.00;101009.41;3570125;39;20303;-83
2021/08/11 03:58:12;;;;;;;3.60;2.40;;;14.90;99.90;;;13.06;100.00;101003.50;3570862;39;20263;-83
2021/08/11 04:01:27;;;;;;;4.93;2.60;;;14.40;99.90;;;13.09;100.00;101021.16;3570636;39;20766;-84
2021/08/11 04:04:31;;;;;;;5.03;2.87;;;14.30;99.90;;;13.13;100.00;101028.72;3582506;39;20359;-83
2021/08/11 04:07:35;;;;;;;2.67;2.10;;;14.30;99.90;;;13.02;100.00;101025.44;3583641;39;20244;-83
2021/08/11 04:10:38;;;;;;;3.87;2.87;;;14.80;99.90;;;13.04;100.00;101047.63;3580067;39;20504;-83
2021/08/11 04:13:41;;;;;;;2.43;2.03;;;14.20;99.90;;;12.98;100.00;101054.50;3582348;39;20322;-83
2021/08/11 04:16:46;;;;;;;2.07;1.83;;;14.20;99.90;;;13.04;100.00;101018.09;3580588;39;20499;-84
2021/08/11 04:19:49;;;;;;;3.33;2.13;;;14.20;99.90;;;13.03;100.00;101001.13;3588648;39;20240;-81
2021/08/11 04:22:52;;;;;;;4.07;2.83;;;14.20;99.90;;;13.09;100.00;100992.44;3582075;39;20389;-82
2021/08/11 04:25:55;;;;;;;3.53;2.53;;;14.20;99.90;;;13.14;100.00;100898.78;3583408;39;20369;-83
2021/08/11 04:28:58;;;;;;;3.93;3.20;;;14.50;99.90;;;13.22;100.00;100873.81;3583192;39;20260;-81
2021/08/11 04:32:03;;;;;;;3.70;2.43;;;14.40;99.90;;;13.29;100.00;100853.34;3584189;39;21138;-82
2021/08/11 04:34:58;;;;;;;4.27;2.47;;;14.20;99.90;;;13.27;100.00;100780.94;3585525;39;20474;-82
2021/08/11 04:38:01;;;;;;;3.50;2.37;;;14.30;99.90;;;13.43;100.00;100737.16;3582565;39;20349;-80
2021/08/11 04:41:04;;;;;;;3.77;2.33;;;15.00;99.90;;;13.70;100.00;100673.31;3574568;39;20365;-83
2021/08/11 04:44:10;;;;;;;5.47;2.03;;;14.40;99.90;;;13.66;100.00;100595.66;3570735;39;20751;-82
2021/08/11 04:47:15;;;;;;;3.80;2.67;;;14.40;99.90;;;13.86;100.00;100539.63;3571601;39;20286;-82
2021/08/11 04:50:19;;;;;;;3.40;2.20;;;14.50;99.90;;;13.94;100.00;100503.81;3571154;39;20279;-84
2021/08/11 04:53:22;;;;;;;3.57;2.50;;;14.50;99.90;;;14.14;100.00;100463.84;3570921;39;20256;-82
2021/08/11 04:56:25;;;;;;;2.90;2.00;;;15.00;99.90;;;14.08;100.00;100433.13;3573283;39;20733;-82
2021/08/11 04:59:28;;;;;;;6.63;2.60;;;14.80;99.90;;;14.28;100.00;100410.09;3572293;39;20648;-83
2021/08/11 05:02:33;;;;;;;3.93;2.27;;;14.80;99.90;;;14.30;100.00;100374.94;3580742;39;20468;-84
2021/08/11 05:05:37;;;;;;;7.07;2.40;;;15.00;99.90;;;14.59;100.00;100377.72;3588592;39;20747;-83
2021/08/11 05:08:40;;;;;;;4.40;2.17;;;15.10;99.90;;;14.42;100.00;100380.75;3635350;22;20331;-84
2021/08/11 05:11:42;;;;;;;3.83;2.60;;;15.20;99.90;;;14.94;100.00;100352.00;3620990;39;20269;-83
2021/08/11 05:14:45;;;;;;;6.43;2.00;;;15.40;99.90;;;14.90;100.00;100348.00;3623225;39;20238;-84
2021/08/11 05:17:50;;;;;;;3.47;2.25;;;15.50;99.90;;;14.77;100.00;100317.31;3614360;39;20257;-82
2021/08/11 05:20:53;;;;;;;2.53;2.05;;;15.70;99.90;;;15.16;100.00;100299.03;3596877;39;20501;-83
2021/08/11 05:23:56;;;;;;;2.97;2.10;;;15.80;99.90;;;15.51;100.00;100288.44;3594607;39;21207;-83
2021/08/11 05:26:59;;;;;;;2.97;1.85;;;15.20;99.90;;;15.70;100.00;100271.69;3593360;39;20354;-81
2021/08/11 05:30:02;;;;;;;3.58;1.90;;;16.10;99.90;;;15.87;100.00;100247.97;3601372;39;20394;-82
2021/08/11 05:33:07;;;;;;;2.17;1.83;;;16.40;99.90;;;16.17;100.00;100230.63;3603486;39;20300;-83
2021/08/11 05:36:10;;;;;;;3.33;2.00;;;16.60;99.90;;;15.84;100.00;100233.00;3603985;39;20585;-83
2021/08/11 05:39:13;;;;;;;2.60;1.63;;;16.80;99.90;;;16.31;100.00;100248.59;3602291;39;20770;-81
2021/08/11 05:42:16;;;;;;;2.75;1.88;;;17.40;99.90;;;16.53;100.00;100252.06;3592595;39;20267;-82
2021/08/11 05:45:20;;;;;;;3.15;1.60;;;17.30;99.90;;;16.47;100.00;100259.06;3591447;39;20738;-82
2021/08/11 05:48:25;;;;;;;3.72;1.55;;;18.10;99.90;;;16.41;100.00;100267.97;3594095;39;20342;-81
2021/08/11 05:51:30;;;;;;;1.73;1.40;;;17.80;99.90;;;16.78;100.00;100284.88;3594461;39;20435;-82
2021/08/11 05:54:33;;;;;;;2.08;1.42;;;18.10;99.90;;;17.07;100.00;100308.09;3599636;39;20263;-83
2021/08/11 05:57:37;;;;;;;5.13;1.75;;;18.40;99.90;;;17.08;100.00;100326.84;3591207;39;20336;-82
2021/08/11 06:00:40;;;;;;;7.80;1.67;;;18.80;99.90;;;17.35;100.00;100343.19;3595986;39;21057;-82
2021/08/11 06:03:54;;;;;;;7.32;2.17;;;18.80;99.90;;;16.92;100.00;100369.59;3595767;39;20358;-84
2021/08/11 06:07:05;;;;;;;2.53;1.80;;;19.00;99.90;;;17.15;100.00;100381.81;3602557;39;20240;-83
2021/08/11 06:10:17;;;;;;;4.82;1.60;;;19.10;99.90;;;16.82;100.00;100386.97;3598097;39;20488;-82
2021/08/11 06:13:30;;;;;;;3.65;1.58;;;19.70;99.90;;;17.14;100.00;100393.66;3612121;39;20499;-83
2021/08/11 06:16:41;;;;;;;1.25;1.15;;;19.40;99.90;;;17.44;100.00;100401.50;3605891;39;20286;-83
2021/08/11 06:19:55;;;;;;;1.42;1.20;;;19.50;99.90;;;17.66;100.00;100405.84;3602744;39;20380;-82
2021/08/11 06:23:07;;;;;;;2.05;1.30;;;19.70;99.90;;;17.03;100.00;100415.00;3597305;39;20243;-83
2021/08/11 06:26:19;;;;;;;2.67;1.52;;;19.80;99.90;;;16.81;100.00;100420.41;3597767;39;20478;-83
2021/08/11 06:29:31;;;;;;;3.67;1.77;;;19.90;99.90;;;16.75;100.00;100414.97;3598322;39;21255;-83
2021/08/11 06:32:43;;;;;;;2.58;2.05;;;20.00;99.90;;;17.28;100.00;100405.38;3597492;39;20259;-85
2021/08/11 06:35:56;;;;;;;2.25;1.60;;;21.00;99.90;;;17.56;100.00;100408.84;3606705;39;20630;-84
2021/08/11 06:39:08;;;;;;;1.17;1.08;;;20.10;99.90;;;18.23;100.00;100416.22;3610035;39;21261;-82
2021/08/11 06:42:19;;;;;;;2.42;1.52;;;20.40;99.90;;;18.31;100.00;100458.53;3609054;39;20257;-83
2021/08/11 06:45:35;;;;;;;3.03;1.92;;;20.60;99.90;;;17.49;100.00;100478.34;3608228;39;20274;-82
2021/08/11 06:48:47;;;;;;;3.30;1.88;;;20.80;99.90;;;17.60;100.00;100476.94;3612960;39;20265;-82
2021/08/11 06:52:00;;;;;;;3.97;1.77;;;20.90;99.90;;;18.36;100.00;100514.81;3604577;39;20416;-84
2021/08/11 06:55:12;;;;;;;3.00;1.77;;;21.10;99.90;;;17.72;100.00;100597.16;3614704;39;20485;-84
2021/08/11 06:58:24;;;;;;;4.82;1.98;;;21.30;99.90;;;18.05;100.00;100610.09;3616956;39;20263;-83
2021/08/11 07:01:36;;;;;;;3.03;1.80;;;21.50;99.90;;;17.63;100.00;100613.72;3609177;39;20251;-84
2021/08/11 07:04:47;;;;;;;3.03;1.88;;;21.70;99.90;;;18.03;100.00;100596.75;3607300;39;20264;-81
2021/08/11 07:08:01;;;;;;;2.45;1.52;;;21.80;99.90;;;18.64;100.00;100599.59;3599204;39;20674;-83
2021/08/11 07:11:13;;;;;;;2.63;1.90;;;21.90;99.90;;;18.63;100.00;100619.59;3607195;39;20255;-83
2021/08/11 07:14:24;;;;;;;3.08;1.92;;;22.30;99.90;;;18.90;100.00;100636.78;3603576;39;21364;-83
2021/08/11 07:17:36;;;;;;;2.78;1.48;;;22.30;99.90;;;18.68;100.00;100663.16;3610917;39;20562;-83
2021/08/11 07:20:49;;;;;;;2.47;1.65;;;22.50;99.90;;;18.78;100.00;100688.06;3614351;39;20341;-81
2021/08/11 07:24:02;;;;;;;1.23;1.13;;;22.70;99.90;;;19.05;100.00;100699.81;3610205;39;20715;-84
2021/08/11 07:27:14;;;;;;;2.08;1.25;;;22.80;99.90;;;19.20;100.00;100702.38;3612463;39;20238;-85
2021/08/11 07:30:26;;;;;;;1.40;1.30;;;23.10;99.90;;;18.71;100.00;100711.56;3613555;39;20266;-84
2021/08/11 07:33:38;;;;;;;5.40;1.65;;;23.30;99.90;;;18.74;100.00;100694.91;3611544;39;20865;-84
2021/08/11 07:36:49;;;;;;;2.28;1.77;;;23.30;99.50;;;19.57;100.00;100672.00;3601632;39;20735;-84
2021/08/11 07:40:03;;;;;;;2.45;1.48;;;23.40;99.40;;;19.70;100.00;100692.91;3602926;39;20262;-86
2021/08/11 07:43:35;;;;;;;1.15;0.93;;;23.60;98.60;;;20.26;100.00;100727.78;3615276;39;20848;-83
2021/08/11 07:46:46;;;;;;;1.77;1.40;;;23.90;98.20;;;19.98;100.00;100750.56;3614258;39;21145;-83
2021/08/11 07:49:58;;;;;;;2.50;1.73;;;24.20;97.30;;;19.90;100.00;100758.94;3608714;39;20513;-85
2021/08/11 07:53:10;;;;;;;1.70;0.95;;;24.30;96.80;;;20.12;100.00;100750.56;3610735;39;20687;-83
2021/08/11 07:56:23;;;;;;;1.80;1.40;;;24.70;96.50;;;20.20;100.00;100763.94;3612767;39;20491;-83
2021/08/11 07:59:35;;;;;;;1.38;1.08;;;25.20;96.40;;;19.77;100.00;100798.81;3604822;39;20873;-86
2021/08/11 08:02:47;;;;;;;1.70;1.27;;;24.80;95.70;;;19.03;100.00;100788.72;3608284;39;20239;-82
2021/08/11 08:05:59;;;;;;;2.13;1.17;;;25.00;93.90;;;18.97;100.00;100774.06;3604396;39;20258;-82
2021/08/11 08:09:11;;;;;;;1.58;1.25;;;24.60;92.00;;;19.68;100.00;100758.25;3608037;39;21071;-85
2021/08/11 08:12:24;;;;;;;1.80;1.25;;;24.30;91.90;;;19.87;100.00;100778.34;3608030;39;20240;-83
2021/08/11 08:15:36;;;;;;;0.70;0.70;;;24.10;91.90;;;20.17;100.00;100843.97;3603290;39;20759;-84
2021/08/11 08:18:48;;;;;;;1.40;1.15;;;24.20;91.90;;;19.62;100.00;100905.69;3601991;39;20499;-83
2021/08/11 08:22:00;;;;;;;1.20;1.10;;;24.30;91.20;;;19.68;100.00;100895.88;3605168;39;20255;-85
2021/08/11 08:25:12;;;;;;;1.42;1.27;;;24.30;90.40;;;20.07;100.00;100885.16;3605544;39;20270;-85
2021/08/11 08:28:25;;;;;;;1.90;1.25;;;24.50;90.40;;;19.47;100.00;100899.53;3603246;39;20260;-83
2021/08/11 08:31:37;;;;;;;1.35;1.10;;;24.30;90.00;;;19.56;100.00;100895.63;3591528;39;21364;-85
2021/08/11 08:34:49;;;;;;;5.32;1.27;;;24.10;89.80;;;20.25;100.00;100900.03;3589489;39;20323;-84
2021/08/11 08:38:12;;;;;;;1.77;1.60;;;24.00;89.80;;;20.59;100.00;100954.25;3646242;22;20319;-83
2021/08/11 08:41:25;;;;;;;1.33;1.23;;;24.30;87.50;;;20.60;100.00;101058.41;3608136;39;20271;-82
2021/08/11 08:44:37;;;;;;;1.70;1.40;;;24.40;86.40;;;20.43;100.00;101080.53;3649949;22;20255;-86
2021/08/11 08:47:50;;;;;;;1.67;1.33;;;24.60;84.30;;;20.32;100.00;101097.38;3593002;39;20678;-85
2021/08/11 08:51:04;;;;;;;2.00;1.40;;;24.70;82.50;;;20.08;100.00;101104.16;3684028;22;22852;-85
2021/08/11 08:54:16;;;;;;;1.95;1.20;;;24.60;81.10;;;21.03;100.00;101097.00;3604156;39;20265;-82
2021/08/11 08:57:28;;;;;;;3.97;1.67;;;24.70;82.20;;;21.22;100.00;101122.59;3599292;39;20321;-83
2021/08/11 09:00:42;;;;;;;2.47;1.40;;;24.90;82.50;;;20.67;100.00;101141.69;3634521;22;20244;-85
2021/08/11 09:03:55;;;;;;;1.48;1.38;;;25.00;81.20;;;20.82;100.00;101166.00;3589573;39;20344;-84
2021/08/11 09:07:09;;;;;;;2.05;1.38;;;25.10;81.00;;;21.20;100.00;101193.56;3594448;39;20433;-85
2021/08/11 09:10:36;;;;;;;3.15;1.52;;;25.60;80.40;;;21.09;100.00;101240.41;3582065;39;20274;-84
2021/08/11 09:14:03;;;;;;;2.42;1.25;;;25.40;79.80;;;20.67;100.00;101255.91;3588357;39;20445;-84
2021/08/11 09:17:17;;;;;;;1.80;1.65;;;25.80;77.40;;;20.81;100.00;101430.91;3587269;39;20478;-83
2021/08/11 09:20:31;;;;;;;3.63;1.60;;;25.40;76.90;;;20.52;100.00;101412.06;3597737;39;21015;-83
2021/08/11 09:24:01;;;;;;;1.25;1.10;;;25.60;76.10;;;20.45;100.00;100596.47;3584822;39;20268;-86
2021/08/11 09:27:20;;;;;;;2.10;1.70;;;25.70;75.60;;;20.15;100.00;100520.06;3594023;39;20770;-82
2021/08/11 09:30:44;;;;;;;1.55;1.10;;;25.40;72.60;;;21.38;100.00;100502.41;3592765;22;20605;-84
2021/08/11 09:34:07;;;;;;;1.30;1.17;;;25.20;73.10;;;22.03;100.00;100459.16;3606751;39;20290;-87
2021/08/11 09:37:19;;;;;;;2.50;2.22;;;25.20;73.90;;;21.75;100.00;100473.31;3613987;39;20771;-84
2021/08/11 09:40:37;;;;;;;1.70;1.38;;;25.50;74.00;;;22.10;100.00;100547.13;3610907;39;20446;-84
2021/08/11 09:44:11;;;;;;;1.15;1.05;;;25.80;72.90;;;20.84;100.00;100462.19;3647546;22;20928;-84
2021/08/11 09:47:29;;;;;;;1.42;1.08;;;26.10;68.20;;;22.03;100.00;100684.50;3597300;39;20248;-82
2021/08/11 09:50:59;;;;;;;2.65;1.13;;;25.90;69.30;;;22.63;100.00;100624.72;3599877;39;20506;-84
2021/08/11 09:54:15;;;;;;;2.38;1.13;;;26.40;70.10;;;23.09;100.00;100618.69;3596495;39;20259;-84
2021/08/11 09:57:45;;;;;;;1.02;0.82;;;26.70;67.80;;;22.84;100.00;100625.09;3636367;22;20349;-81
2021/08/11 10:01:13;;;;;;;1.00;0.95;;;27.20;66.30;;;21.97;100.00;100639.06;3590423;39;20259;-84
2021/08/11 10:04:26;;;;;;;2.17;1.20;;;27.60;62.00;;;21.83;100.00;100638.34;3587173;39;20293;-82
2021/08/11 10:07:39;;;;;;;2.22;1.90;;;27.80;60.20;;;22.07;100.00;100636.66;3600826;39;20271;-83
2021/08/11 10:11:09;;;;;;;1.13;1.02;;;27.90;58.50;;;21.89;100.00;100631.97;3619072;39;20779;-86
2021/08/11 10:14:34;;;;;;;1.98;0.93;;;27.70;55.90;;;22.52;100.00;100648.97;3597212;39;20258;-84
2021/08/11 10:17:47;;;;;;;2.40;1.27;;;27.60;58.00;;;22.88;100.00;100655.47;3608784;39;20928;-86
2021/08/11 10:21:00;;;;;;;3.47;1.58;;;27.70;57.50;;;22.27;100.00;100655.53;3602678;39;20485;-84
2021/08/11 10:24:15;;;;;;;0.80;0.63;;;28.50;57.60;;;22.70;100.00;100660.94;3598597;39;20372;-83
2021/08/11 10:27:27;;;;;;;0.75;0.75;;;28.40;57.50;;;23.01;100.00;100671.69;3610851;39;20352;-85
2021/08/11 10:30:42;;;;;;;1.90;1.00;;;28.40;57.30;;;21.95;100.00;100684.75;3599114;39;20262;-83
2021/08/11 10:33:55;;;;;;;1.67;0.93;;;28.50;56.30;;;21.77;100.00;100680.06;3575651;39;20350;-85
2021/08/11 10:37:10;;;;;;;1.30;0.95;;;29.10;56.30;;;22.29;100.00;100689.69;3590261;39;21079;-85
2021/08/11 10:40:23;;;;;;;1.33;1.20;;;28.50;55.50;;;21.60;100.00;100693.41;3610413;39;20711;-82
2021/08/11 10:43:43;;;;;;;2.08;1.25;;;28.60;54.40;;;22.69;100.00;100684.66;3640367;22;21000;-83
2021/08/11 10:47:04;;;;;;;1.75;1.30;;;28.60;54.40;;;23.80;100.00;100689.66;3606365;39;20389;-84
2021/08/11 10:49:55;;;;;;;2.63;1.40;;;28.90;53.80;;;23.04;100.00;100705.88;3516412;22;20394;-86
2021/08/11 10:52:23;;;;;;;3.83;1.73;;;29.30;53.80;;;22.36;100.00;100709.56;3594743;39;20394;-83
2021/08/11 10:54:53;;;;;;;2.55;1.23;;;29.30;52.40;;;23.38;100.00;100712.53;3596430;39;20334;-83
2021/08/11 10:57:47;;;;;;;3.17;1.00;;;29.40;53.20;;;23.89;100.00;100706.53;3599873;39;20688;-83
2021/08/11 11:00:42;;;;;;;1.45;1.27;;;29.60;52.60;;;22.88;100.00;100708.16;3650117;22;20394;-83
2021/08/11 11:03:10;;;;;;;2.92;1.00;;;29.90;51.30;;;22.27;100.00;100710.06;3604976;39;20300;-83
2021/08/11 11:06:02;;;;;;;1.27;1.00;;;29.60;50.40;;;22.19;100.00;100703.00;3606519;39;20248;-84
2021/08/11 11:08:35;;;;;;;1.88;1.45;;;29.50;50.80;;;22.68;100.00;100699.34;3604635;39;20259;-84
2021/08/11 11:11:41;;;;;;;1.27;0.88;;;29.30;51.50;;;22.50;100.00;100699.34;3605711;39;20617;-84
2021/08/11 11:14:53;;;;;;;3.40;0.85;;;29.20;51.10;;;22.34;100.00;100703.50;3614695;39;20943;-85
2021/08/11 11:17:26;;;;;;;0.88;0.88;;;29.00;51.10;;;22.09;100.00;100710.88;3595271;39;20333;-87
2021/08/11 11:20:32;;;;;;;2.08;1.15;;;28.90;51.30;;;22.95;100.00;100712.72;3601640;39;20266;-83
2021/08/11 11:23:05;;;;;;;0.95;0.90;;;28.90;52.10;;;22.79;100.00;100706.78;3597131;39;20236;-84
2021/08/11 11:26:04;;;;;;;2.50;1.45;;;29.00;51.00;;;22.44;100.00;100705.69;3610100;39;20966;-83
2021/08/11 11:29:02;;;;;;;1.33;0.85;;;29.10;49.60;;;22.58;100.00;100708.06;3607505;39;21256;-85
2021/08/11 11:31:43;;;;;;;1.27;1.05;;;29.30;49.40;;;22.39;100.00;100722.72;3612434;39;20262;-84
2021/08/11 11:34:41;;;;;;;3.30;1.25;;;29.00;49.40;;;22.89;100.00;100715.28;3613021;39;20473;-84
2021/08/11 11:37:28;;;;;;;0.65;0.55;;;29.20;49.50;;;23.16;100.00;100717.69;3591110;39;20271;-82
2021/08/11 11:40:13;;;;;;;1.58;1.00;;;29.10;49.40;;;22.87;100.00;100706.47;3618991;39;20437;-85
2021/08/11 11:42:41;;;;;;;1.15;0.90;;;29.30;48.50;;;22.91;100.00;100717.78;3607022;39;20760;-83
2021/08/11 11:45:11;;;;;;;1.77;1.10;;;30.00;48.90;;;22.32;100.00;100721.97;3607016;39;20345;-85
2021/08/11 11:48:13;;;;;;;3.40;0.98;;;29.30;48.30;;;21.98;100.00;100717.00;3607138;39;20528;-83
2021/08/11 11:50:46;;;;;;;1.27;1.00;;;29.10;48.20;;;22.04;100.00;100719.69;3607990;39;20309;-83
2021/08/11 11:53:26;;;;;;;1.05;0.95;;;29.30;48.90;;;21.83;100.00;100707.28;3603352;39;20863;-83
2021/08/11 11:55:54;;;;;;;2.15;1.05;;;28.60;48.70;;;22.07;100.00;100710.25;3608115;39;20818;-84
2021/08/11 11:58:24;;;;;;;0.75;0.63;;;28.40;49.30;;;22.43;100.00;100715.78;3609056;39;20258;-83
2021/08/11 12:01:01;;;;;;;3.95;1.13;;;28.30;49.60;;;22.14;100.00;100711.84;3608426;39;20378;-84
2021/08/11 12:03:40;;;;;;;1.08;0.70;;;28.30;49.10;;;22.65;100.00;100715.31;3601024;39;20259;-83
2021/08/11 12:06:09;;;;;;;1.65;1.25;;;28.30;49.70;;;22.63;100.00;100712.81;3595371;39;20785;-83
2021/08/11 12:08:37;;;;;;;1.40;0.90;;;28.20;49.70;;;22.80;100.00;100713.94;3597195;39;20787;-84
2021/08/11 12:11:09;;;;;;;0.50;0.45;;;28.40;49.80;;;23.02;100.00;100717.00;3599902;39;20275;-83
2021/08/11 12:13:51;;;;;;;1.25;0.90;;;28.60;49.50;;;22.84;100.00;100715.16;3596139;39;20327;-83
2021/08/11 12:16:21;;;;;;;2.83;0.95;;;29.00;49.30;;;23.30;100.00;100713.72;3602287;39;20492;-84
2021/08/11 12:18:51;;;;;;;1.55;1.38;;;29.30;48.50;;;22.98;100.00;100718.56;3615414;39;20331;-82
2021/08/11 12:21:22;;;;;;;1.95;1.15;;;29.50;47.70;;;22.93;100.00;100721.97;3608396;39;20347;-83
2021/08/11 12:23:52;;;;;;;1.38;1.20;;;29.20;46.80;;;23.02;100.00;100705.25;3602778;39;20899;-84
2021/08/11 12:26:19;;;;;;;1.35;1.25;;;29.50;47.50;;;24.13;100.00;100715.59;3595075;39;21279;-85
2021/08/11 12:28:48;;;;;;;1.35;0.77;;;29.60;47.90;;;23.54;100.00;100718.22;3600714;39;20323;-85
2021/08/11 12:31:20;;;;;;;1.05;0.82;;;30.20;47.30;;;23.63;100.00;100714.09;3606301;39;20341;-84
2021/08/11 12:33:52;;;;;;;1.15;1.05;;;30.00;47.10;;;23.50;100.00;100725.19;3599818;39;20283;-83
2021/08/11 12:36:22;;;;;;;2.58;0.82;;;29.90;46.90;;;23.28;100.00;100719.41;3602034;39;20263;-85
2021/08/11 12:39:01;;;;;;;1.75;1.00;;;29.80;47.40;;;23.51;100.00;100717.84;3605809;39;20262;-84
2021/08/11 12:41:34;;;;;;;0.98;0.70;;;29.80;47.00;;;23.03;100.00;100721.41;3599002;39;20976;-84
2021/08/11 12:44:14;;;;;;;1.08;1.00;;;29.70;47.00;;;22.82;100.00;100720.00;3595036;39;20255;-86
2021/08/11 12:46:48;;;;;;;2.72;1.38;;;29.70;47.10;;;23.19;100.00;100726.25;3608344;39;20281;-85